Time;durP1;ratioP1;P1;durP2;ratioP2;P2;SDS_P1;SDS_P2;PMS_P1;PMS_P2;Temp;Humidity;BMP_temperature;BMP_pressure;BME280_temperature;BME280_humidity;BME280_pressure;Samples;Min_cycle;Max_cycle;Signal;HPM_P1;HPM_P2
2023/03/09 00:00:11;;;;;;;2.10;1.48;;;8.40;99.90;;;;;;7619416;19;20010;-74
2023/03/09 00:02:43;;;;;;;4.65;2.33;;;8.40;99.90;;;;;;7616359;19;21386;-73
2023/03/09 00:05:16;;;;;;;2.25;1.40;;;8.50;99.90;;;;;;7630587;19;20062;-74
2023/03/09 00:07:48;;;;;;;2.17;1.67;;;8.50;99.90;;;;;;7632068;19;20056;-73
2023/03/09 00:10:21;;;;;;;5.80;1.90;;;8.60;99.90;;;;;;7616957;19;20014;-73
2023/03/09 00:12:54;;;;;;;5.15;1.85;;;8.60;99.90;;;;;;7617702;19;20015;-74
2023/03/09 00:15:27;;;;;;;4.15;1.40;;;8.70;99.90;;;;;;7626650;19;20014;-74
2023/03/09 00:17:59;;;;;;;3.20;1.80;;;8.80;99.90;;;;;;7629960;19;20544;-74
2023/03/09 00:20:32;;;;;;;6.20;1.52;;;8.90;99.90;;;;;;7635390;19;20509;-73
2023/03/09 00:23:08;;;;;;;4.30;1.50;;;9.00;99.90;;;;;;7639174;19;20042;-73
2023/03/09 00:25:40;;;;;;;5.00;1.08;;;9.10;99.90;;;;;;7622233;19;20036;-74
2023/03/09 00:28:13;;;;;;;2.08;1.17;;;9.40;99.90;;;;;;7629349;19;20492;-74
2023/03/09 00:30:46;;;;;;;1.10;0.85;;;9.60;99.90;;;;;;7603318;19;20018;-74
2023/03/09 00:33:18;;;;;;;5.32;1.50;;;9.60;99.90;;;;;;7617448;19;20430;-74
2023/03/09 00:35:51;;;;;;;1.70;1.00;;;9.70;99.90;;;;;;7618100;19;20010;-73
2023/03/09 00:38:24;;;;;;;2.20;1.30;;;9.70;99.90;;;;;;7620436;19;20018;-74
2023/03/09 00:40:57;;;;;;;4.05;0.90;;;9.80;99.90;;;;;;7627004;19;20014;-74
2023/03/09 00:43:30;;;;;;;1.60;1.08;;;9.80;99.90;;;;;;7621164;19;20054;-73
2023/03/09 00:46:03;;;;;;;1.70;1.00;;;9.70;99.90;;;;;;7634639;19;20018;-74
2023/03/09 00:48:39;;;;;;;1.92;1.10;;;9.70;99.90;;;;;;7608846;19;20286;-73
2023/03/09 00:51:11;;;;;;;2.78;1.05;;;9.80;99.90;;;;;;7617286;19;20639;-75
2023/03/09 00:53:44;;;;;;;1.47;0.80;;;9.70;99.90;;;;;;7627822;19;20090;-73
2023/03/09 00:56:19;;;;;;;3.80;1.10;;;9.80;99.90;;;;;;7631517;19;20315;-73
2023/03/09 00:58:53;;;;;;;2.13;0.70;;;9.80;99.90;;;;;;7624711;19;20021;-73
2023/03/09 01:01:26;;;;;;;3.30;0.70;;;9.90;99.90;;;;;;7630180;19;20018;-73
2023/03/09 01:03:59;;;;;;;1.02;0.70;;;10.10;99.90;;;;;;7624090;19;20033;-73
2023/03/09 01:06:31;;;;;;;1.05;0.50;;;10.20;99.90;;;;;;7633774;19;20026;-73
2023/03/09 01:09:04;;;;;;;0.60;0.57;;;10.40;99.90;;;;;;7634899;19;20078;-73
2023/03/09 01:11:38;;;;;;;1.10;0.70;;;10.50;99.90;;;;;;7625609;19;20042;-73
2023/03/09 01:14:11;;;;;;;1.27;0.40;;;10.70;99.90;;;;;;7614679;19;20026;-74
2023/03/09 01:16:44;;;;;;;0.65;0.60;;;10.70;99.90;;;;;;7630399;19;20079;-74
2023/03/09 01:19:16;;;;;;;0.90;0.52;;;10.60;99.90;;;;;;7615065;19;20364;-73
2023/03/09 01:21:49;;;;;;;1.60;0.63;;;10.70;99.90;;;;;;7609326;19;20043;-73
2023/03/09 01:24:22;;;;;;;0.80;0.70;;;10.70;99.90;;;;;;7608272;19;20022;-73
2023/03/09 01:26:54;;;;;;;0.65;0.60;;;10.70;99.90;;;;;;7632971;19;20011;-74
2023/03/09 01:29:27;;;;;;;1.33;0.90;;;10.70;99.90;;;;;;7611029;19;20026;-73
2023/03/09 01:32:00;;;;;;;2.28;0.63;;;10.60;99.90;;;;;;7620077;19;20026;-73
2023/03/09 01:34:33;;;;;;;1.38;0.80;;;10.80;99.90;;;;;;7598832;19;20949;-73
2023/03/09 01:37:05;;;;;;;2.30;0.70;;;10.70;99.90;;;;;;7623022;19;20070;-73
2023/03/09 01:39:38;;;;;;;0.82;0.47;;;10.70;99.90;;;;;;7627010;19;20014;-73
2023/03/09 01:42:11;;;;;;;0.85;0.50;;;10.70;99.90;;;;;;7618348;19;20006;-73
2023/03/09 01:44:45;;;;;;;0.90;0.50;;;10.70;99.90;;;;;;7615920;19;20707;-75
2023/03/09 01:47:18;;;;;;;0.90;0.73;;;10.80;99.90;;;;;;7614474;19;20018;-73
2023/03/09 01:49:51;;;;;;;2.28;0.65;;;10.80;99.90;;;;;;7616937;19;20449;-73
2023/03/09 01:52:25;;;;;;;2.33;0.47;;;10.70;99.90;;;;;;7629959;19;20022;-73
2023/03/09 01:55:01;;;;;;;5.32;0.73;;;10.80;99.90;;;;;;7616281;19;20022;-74
2023/03/09 01:57:34;;;;;;;1.45;0.43;;;10.80;99.90;;;;;;7609649;19;20039;-74
2023/03/09 02:00:13;;;;;;;1.08;0.52;;;11.00;98.90;;;;;;7617865;19;20019;-73
2023/03/09 02:03:06;;;;;;;1.05;0.70;;;11.00;98.70;;;;;;7617969;19;20107;-74
2023/03/09 02:06:06;;;;;;;1.10;0.55;;;11.00;96.80;;;;;;7607581;19;20832;-73
2023/03/09 02:09:03;;;;;;;0.90;0.50;;;10.90;97.30;;;;;;7620612;19;20021;-74
2023/03/09 02:11:38;;;;;;;1.35;0.47;;;10.90;96.40;;;;;;7619180;19;20034;-73
2023/03/09 02:14:12;;;;;;;0.20;0.20;;;11.00;97.10;;;;;;7616586;19;20018;-73
2023/03/09 02:16:45;;;;;;;0.70;0.20;;;11.10;95.30;;;;;;7608936;19;20951;-75
2023/03/09 02:19:40;;;;;;;0.32;0.32;;;11.10;95.20;;;;;;7609665;19;20159;-73
2023/03/09 02:22:13;;;;;;;0.50;0.43;;;11.20;94.60;;;;;;7620238;19;20018;-73
2023/03/09 02:24:56;;;;;;;0.50;0.47;;;11.20;94.60;;;;;;7625385;19;20022;-74
2023/03/09 02:27:30;;;;;;;0.85;0.30;;;11.20;95.20;;;;;;7615933;19;20019;-73
2023/03/09 02:30:05;;;;;;;0.45;0.40;;;11.20;95.30;;;;;;7596394;19;20034;-73
2023/03/09 02:32:39;;;;;;;0.80;0.40;;;11.20;95.10;;;;;;7621054;19;20086;-75
2023/03/09 02:35:12;;;;;;;0.88;0.40;;;11.30;94.00;;;;;;7606487;19;20015;-73
2023/03/09 02:37:50;;;;;;;0.43;0.30;;;11.30;94.10;;;;;;7606881;19;20023;-73
2023/03/09 02:40:30;;;;;;;0.30;0.25;;;11.30;96.50;;;;;;7621709;19;20019;-73
2023/03/09 02:43:05;;;;;;;0.40;0.38;;;11.10;97.50;;;;;;7619235;19;20038;-76
2023/03/09 02:45:39;;;;;;;0.93;0.50;;;11.10;99.40;;;;;;7619959;19;20019;-75
2023/03/09 02:48:11;;;;;;;0.83;0.40;;;10.90;99.90;;;;;;7622873;19;20999;-74
2023/03/09 02:50:44;;;;;;;0.45;0.30;;;10.90;99.20;;;;;;7610661;19;20818;-77
2023/03/09 02:53:17;;;;;;;0.47;0.22;;;11.00;99.00;;;;;;7616611;19;20687;-74
2023/03/09 02:55:50;;;;;;;2.17;0.50;;;10.90;99.90;;;;;;7619616;19;20326;-75
2023/03/09 02:58:24;;;;;;;;;;;10.90;99.90;;;;;;7625628;19;20570;-75
2023/03/09 03:00:57;;;;;;;6.20;0.90;;;10.80;99.90;;;;;;7624079;19;19974;-75
2023/03/09 03:03:30;;;;;;;1.23;0.50;;;10.30;99.90;;;;;;7622643;19;20038;-75
2023/03/09 03:06:03;;;;;;;1.20;0.43;;;9.90;99.90;;;;;;7609886;19;20029;-74
2023/03/09 03:08:36;;;;;;;;;;;9.50;99.90;;;;;;7623012;19;20022;-75
2023/03/09 03:11:12;;;;;;;1.02;0.50;;;9.30;99.90;;;;;;7617307;19;20788;-74
2023/03/09 03:13:46;;;;;;;1.30;0.70;;;9.20;99.90;;;;;;7623681;19;20022;-76
2023/03/09 03:16:19;;;;;;;1.17;0.70;;;9.10;99.90;;;;;;7600790;19;20046;-76
2023/03/09 03:18:51;;;;;;;1.13;0.50;;;9.00;99.90;;;;;;7615834;19;20032;-76
2023/03/09 03:21:26;;;;;;;1.63;0.65;;;8.90;99.90;;;;;;7605753;19;20014;-76
2023/03/09 03:23:58;;;;;;;1.15;0.50;;;8.90;99.90;;;;;;7619687;19;20286;-76
2023/03/09 03:26:35;;;;;;;1.45;0.50;;;8.80;99.90;;;;;;7630544;19;20388;-76
2023/03/09 03:29:13;;;;;;;2.28;0.82;;;8.80;99.90;;;;;;7619017;19;20029;-74
2023/03/09 03:31:45;;;;;;;1.17;0.68;;;8.70;99.90;;;;;;7617554;19;20819;-76
2023/03/09 03:34:21;;;;;;;2.28;0.50;;;8.70;99.90;;;;;;7619303;19;20082;-76
2023/03/09 03:36:54;;;;;;;2.50;0.50;;;8.70;99.90;;;;;;7614409;19;20018;-76
2023/03/09 03:39:28;;;;;;;6.45;0.75;;;8.60;99.90;;;;;;7617285;19;20028;-76
2023/03/09 03:42:04;;;;;;;1.10;0.60;;;8.70;99.90;;;;;;7622884;19;20018;-75
2023/03/09 03:44:37;;;;;;;1.37;0.60;;;8.70;99.90;;;;;;7608406;19;20074;-74
2023/03/09 03:47:10;;;;;;;0.50;0.50;;;8.70;99.90;;;;;;7594892;19;20283;-73
2023/03/09 03:49:44;;;;;;;2.65;0.80;;;8.70;99.90;;;;;;7592263;19;20019;-77
2023/03/09 03:52:18;;;;;;;1.88;0.95;;;8.80;99.90;;;;;;7619254;19;20322;-74
2023/03/09 03:54:53;;;;;;;1.25;0.75;;;8.80;99.90;;;;;;7608825;19;20014;-74
2023/03/09 03:57:25;;;;;;;1.37;0.60;;;8.80;99.90;;;;;;7623747;19;20674;-74
2023/03/09 03:59:58;;;;;;;2.85;0.93;;;8.80;99.90;;;;;;7587772;19;21286;-75
2023/03/09 04:02:31;;;;;;;1.85;0.70;;;8.70;99.90;;;;;;7608904;19;20018;-75
2023/03/09 04:05:04;;;;;;;1.10;0.70;;;8.80;99.90;;;;;;7604828;19;20024;-73
2023/03/09 04:07:37;;;;;;;1.70;0.80;;;8.80;99.90;;;;;;7627759;19;20035;-75
2023/03/09 04:10:11;;;;;;;1.42;0.90;;;8.80;99.90;;;;;;7619949;19;20042;-75
2023/03/09 04:12:47;;;;;;;1.73;0.77;;;8.80;99.90;;;;;;7632112;19;20021;-73
2023/03/09 04:15:21;;;;;;;3.67;0.90;;;8.80;99.90;;;;;;7622765;19;20051;-75
2023/03/09 04:17:54;;;;;;;;;;;8.80;99.90;;;;;;7624298;19;20803;-73
2023/03/09 04:20:28;;;;;;;2.47;0.98;;;8.90;99.90;;;;;;7619470;19;20977;-73
2023/03/09 04:23:01;;;;;;;1.30;0.80;;;8.90;99.90;;;;;;7615811;19;20029;-76
2023/03/09 04:25:34;;;;;;;2.67;0.95;;;8.90;99.90;;;;;;7622811;19;20490;-75
2023/03/09 04:28:08;;;;;;;0.68;0.60;;;8.90;99.90;;;;;;7621426;19;20070;-74
2023/03/09 04:30:45;;;;;;;1.00;0.90;;;8.90;99.90;;;;;;7623173;19;20025;-74
2023/03/09 04:33:19;;;;;;;2.75;0.90;;;9.00;99.90;;;;;;7625740;19;20014;-75
2023/03/09 04:35:52;;;;;;;1.20;0.80;;;9.00;99.90;;;;;;7624897;19;20031;-75
2023/03/09 04:38:30;;;;;;;0.82;0.70;;;9.00;99.90;;;;;;7634130;19;20034;-75
2023/03/09 04:41:03;;;;;;;3.17;0.98;;;8.90;99.90;;;;;;7635258;19;20011;-75
2023/03/09 04:43:35;;;;;;;0.75;0.70;;;8.90;99.90;;;;;;7633920;19;20019;-75
2023/03/09 04:46:08;;;;;;;3.17;0.85;;;8.80;99.90;;;;;;7632183;19;20027;-75
2023/03/09 04:48:44;;;;;;;;;;;8.80;99.90;;;;;;7600171;19;21003;-72
2023/03/09 04:51:17;;;;;;;1.50;1.00;;;8.80;99.90;;;;;;7624523;19;19927;-75
2023/03/09 04:53:51;;;;;;;2.28;0.80;;;8.80;99.90;;;;;;7624231;19;20034;-75
2023/03/09 04:56:26;;;;;;;2.50;0.93;;;8.80;99.90;;;;;;7635941;19;20015;-73
2023/03/09 04:59:05;;;;;;;2.80;0.70;;;8.80;99.90;;;;;;7617651;19;22269;-74
2023/03/09 05:01:37;;;;;;;3.85;1.08;;;8.80;99.90;;;;;;7621461;19;20043;-74
2023/03/09 05:04:15;;;;;;;1.02;0.82;;;8.60;99.90;;;;;;7629203;19;20014;-74
2023/03/09 05:06:54;;;;;;;3.83;1.10;;;8.40;99.90;;;;;;7629703;19;20727;-73
2023/03/09 05:09:28;;;;;;;7.28;1.20;;;8.30;99.90;;;;;;7629847;19;20557;-73
2023/03/09 05:12:02;;;;;;;4.93;1.58;;;8.10;99.90;;;;;;7626185;19;20019;-73
2023/03/09 05:14:37;;;;;;;2.80;1.20;;;8.10;99.90;;;;;;7630429;19;20019;-73
2023/03/09 05:17:10;;;;;;;4.63;1.55;;;8.00;99.90;;;;;;7616198;19;20018;-73
2023/03/09 05:19:43;;;;;;;8.57;1.35;;;8.00;99.90;;;;;;7627574;19;20025;-73
2023/03/09 05:22:16;;;;;;;8.50;2.30;;;7.90;99.90;;;;;;7629953;19;20033;-73
2023/03/09 05:24:49;;;;;;;2.60;1.13;;;7.90;99.90;;;;;;7635988;19;20019;-73
2023/03/09 05:27:22;;;;;;;4.23;0.93;;;7.90;99.90;;;;;;7627429;19;20014;-74
2023/03/09 05:29:55;;;;;;;3.63;1.15;;;7.80;99.90;;;;;;7624403;19;20287;-74
2023/03/09 05:32:27;;;;;;;1.90;1.00;;;7.80;99.90;;;;;;7620997;19;20026;-74
2023/03/09 05:35:00;;;;;;;0.82;0.80;;;7.80;99.90;;;;;;7634419;19;20019;-74
2023/03/09 05:37:34;;;;;;;8.57;1.50;;;7.80;99.90;;;;;;7634222;19;20080;-74
2023/03/09 05:40:14;;;;;;;1.75;1.17;;;7.70;99.90;;;;;;7609456;19;20015;-74
2023/03/09 05:42:48;;;;;;;0.73;0.73;;;7.70;99.90;;;;;;7613671;19;20022;-74
2023/03/09 05:45:23;;;;;;;1.65;1.00;;;7.70;99.90;;;;;;7615090;19;20060;-74
2023/03/09 05:47:55;;;;;;;5.10;1.08;;;7.60;99.90;;;;;;7606805;19;20679;-73
2023/03/09 05:50:29;;;;;;;4.30;1.13;;;7.50;99.90;;;;;;7624930;19;20503;-73
2023/03/09 05:53:02;;;;;;;1.88;0.88;;;7.40;99.90;;;;;;7618743;19;20609;-73
2023/03/09 05:55:35;;;;;;;2.05;0.95;;;7.30;99.90;;;;;;7626390;19;20027;-73
2023/03/09 05:58:07;;;;;;;1.08;0.50;;;7.30;99.90;;;;;;7598009;19;20078;-74
2023/03/09 06:00:39;;;;;;;1.70;0.82;;;7.20;99.90;;;;;;7566542;19;20133;-74
2023/03/09 06:03:12;;;;;;;0.73;0.38;;;7.20;99.90;;;;;;7596842;19;20027;-75
2023/03/09 06:06:00;;;;;;;;;;;7.20;99.90;;;;;;7593141;19;25432;-75
2023/03/09 06:08:33;;;;;;;2.03;0.60;;;7.20;99.90;;;;;;7621113;19;19918;-74
2023/03/09 06:11:12;;;;;;;4.60;0.77;;;7.20;99.90;;;;;;7617341;19;20038;-75
2023/03/09 06:13:46;;;;;;;0.98;0.60;;;7.20;99.90;;;;;;7631870;19;20025;-76
2023/03/09 06:16:20;;;;;;;1.42;0.70;;;7.10;99.90;;;;;;7637062;19;20055;-75
2023/03/09 06:18:55;;;;;;;1.15;0.50;;;7.10;99.90;;;;;;7635917;19;20025;-75
2023/03/09 06:21:28;;;;;;;2.70;0.65;;;7.10;99.90;;;;;;7633268;19;20113;-75
2023/03/09 06:24:01;;;;;;;0.77;0.40;;;7.10;99.90;;;;;;7638262;19;20011;-75
2023/03/09 06:26:34;;;;;;;2.40;0.50;;;7.20;99.90;;;;;;7640534;19;20018;-75
2023/03/09 06:29:12;;;;;;;3.88;0.63;;;7.10;99.90;;;;;;7626208;19;20610;-74
2023/03/09 06:31:48;;;;;;;0.50;0.50;;;7.10;99.90;;;;;;7613895;19;21190;-78
2023/03/09 06:34:22;;;;;;;4.82;1.67;;;7.10;99.90;;;;;;7621080;19;20023;-75
2023/03/09 06:36:55;;;;;;;3.92;0.77;;;7.20;99.90;;;;;;7634560;19;20551;-76
2023/03/09 06:39:27;;;;;;;0.57;0.57;;;7.20;99.90;;;;;;7635092;19;20022;-77
2023/03/09 06:42:01;;;;;;;1.58;0.73;;;7.20;99.90;;;;;;7637479;19;20021;-74
2023/03/09 06:44:43;;;;;;;1.05;0.70;;;7.30;99.90;;;;;;7637387;19;20014;-75
2023/03/09 06:47:16;;;;;;;1.05;0.63;;;7.30;99.90;;;;;;7631310;19;20022;-75
2023/03/09 06:49:54;;;;;;;5.00;0.70;;;7.30;99.90;;;;;;7639591;19;20018;-74
2023/03/09 06:52:29;;;;;;;0.70;0.60;;;7.20;99.90;;;;;;7645999;19;20077;-74
2023/03/09 06:55:03;;;;;;;1.40;0.88;;;7.30;99.90;;;;;;7626126;19;20006;-74
2023/03/09 06:57:50;;;;;;;3.42;0.90;;;7.30;99.90;;;;;;7629150;19;20039;-74
2023/03/09 07:00:25;;;;;;;2.45;0.90;;;7.40;99.90;;;;;;7622402;19;20014;-74
2023/03/09 07:03:01;;;;;;;2.63;0.85;;;7.40;99.90;;;;;;7640872;19;20022;-74
2023/03/09 07:05:33;;;;;;;4.50;1.10;;;7.50;99.90;;;;;;7642913;19;20042;-74
2023/03/09 07:08:06;;;;;;;1.33;0.75;;;7.50;99.90;;;;;;7626561;19;20017;-73
2023/03/09 07:10:38;;;;;;;1.10;0.52;;;7.50;99.90;;;;;;7636905;19;20043;-74
2023/03/09 07:13:14;;;;;;;3.97;0.60;;;7.60;99.90;;;;;;7639352;19;20035;-74
2023/03/09 07:15:46;;;;;;;2.13;0.68;;;7.60;99.90;;;;;;7624835;19;20018;-74
2023/03/09 07:18:19;;;;;;;0.68;0.50;;;7.70;99.90;;;;;;7636243;19;20062;-74
2023/03/09 07:20:52;;;;;;;1.00;0.80;;;7.70;99.90;;;;;;7637228;19;20029;-74
2023/03/09 07:23:24;;;;;;;2.75;1.17;;;7.70;99.90;;;;;;7634209;19;20074;-74
2023/03/09 07:26:04;;;;;;;1.65;0.60;;;7.70;99.90;;;;;;7635821;19;20014;-74
2023/03/09 07:28:37;;;;;;;1.50;0.50;;;7.70;99.90;;;;;;7629650;19;20039;-74
2023/03/09 07:31:12;;;;;;;0.50;0.50;;;7.70;99.90;;;;;;7622306;19;20018;-74
2023/03/09 07:33:49;;;;;;;4.82;0.82;;;7.70;99.90;;;;;;7631683;19;20027;-75
2023/03/09 07:36:22;;;;;;;0.85;0.40;;;7.80;99.90;;;;;;7637889;19;20023;-74
2023/03/09 07:38:54;;;;;;;0.68;0.45;;;7.80;99.90;;;;;;7619613;19;20061;-74
2023/03/09 07:41:27;;;;;;;2.63;1.00;;;7.90;99.90;;;;;;7634821;19;20554;-74
2023/03/09 07:43:59;;;;;;;1.77;1.00;;;7.90;99.90;;;;;;7629727;19;20014;-73
2023/03/09 07:46:32;;;;;;;3.88;1.00;;;8.00;99.90;;;;;;7630908;19;20272;-75
2023/03/09 07:49:04;;;;;;;2.73;2.23;;;8.00;99.90;;;;;;7626844;19;20007;-73
2023/03/09 07:51:37;;;;;;;1.23;0.90;;;8.00;99.90;;;;;;7637325;19;20129;-74
2023/03/09 07:54:10;;;;;;;1.90;0.60;;;8.20;99.90;;;;;;7631601;19;20027;-74
2023/03/09 07:56:45;;;;;;;1.00;0.65;;;8.20;99.90;;;;;;7634039;19;20039;-74
2023/03/09 07:59:18;;;;;;;0.35;0.35;;;8.30;99.90;;;;;;7619886;19;20018;-74
2023/03/09 08:01:51;;;;;;;0.77;0.50;;;8.30;99.90;;;;;;7628126;19;20018;-73
2023/03/09 08:04:25;;;;;;;1.27;0.80;;;8.20;99.90;;;;;;7628691;19;20094;-74
2023/03/09 08:06:58;;;;;;;1.48;0.73;;;8.20;99.90;;;;;;7631167;19;20022;-75
2023/03/09 08:09:30;;;;;;;2.22;0.60;;;8.20;99.90;;;;;;7625562;19;20043;-74
2023/03/09 08:12:03;;;;;;;0.60;0.50;;;8.30;99.90;;;;;;7641890;19;20682;-75
2023/03/09 08:14:35;;;;;;;0.82;0.75;;;8.20;99.90;;;;;;7634998;19;20050;-73
2023/03/09 08:17:07;;;;;;;1.10;0.70;;;8.20;99.90;;;;;;7636272;19;20022;-73
2023/03/09 08:19:40;;;;;;;1.40;0.98;;;8.30;99.90;;;;;;7635002;19;20042;-74
2023/03/09 08:22:13;;;;;;;1.92;0.68;;;8.30;99.90;;;;;;7637906;19;20101;-73
2023/03/09 08:24:45;;;;;;;8.48;1.40;;;8.50;99.90;;;;;;7633691;19;20033;-73
2023/03/09 08:27:18;;;;;;;4.70;1.73;;;8.40;99.90;;;;;;7633697;19;20014;-74
2023/03/09 08:29:50;;;;;;;1.95;0.80;;;8.50;99.90;;;;;;7631113;19;20054;-74
2023/03/09 08:32:25;;;;;;;3.35;1.13;;;8.50;99.90;;;;;;7620040;19;20052;-74
2023/03/09 08:34:57;;;;;;;2.35;0.90;;;8.50;99.90;;;;;;7636162;19;20483;-74
2023/03/09 08:37:30;;;;;;;1.27;0.80;;;8.50;99.90;;;;;;7636866;19;20018;-75
2023/03/09 08:40:02;;;;;;;1.65;0.60;;;8.60;99.90;;;;;;7630566;19;20978;-74
2023/03/09 08:42:35;;;;;;;0.90;0.70;;;8.60;99.90;;;;;;7640169;19;20368;-74
2023/03/09 08:45:08;;;;;;;1.48;0.70;;;8.60;99.90;;;;;;7631173;19;20021;-73
2023/03/09 08:47:40;;;;;;;2.15;0.90;;;8.70;99.90;;;;;;7640567;19;20010;-74
2023/03/09 08:50:13;;;;;;;4.93;0.80;;;8.70;99.90;;;;;;7634098;19;20965;-74
2023/03/09 08:52:46;;;;;;;1.33;0.98;;;8.80;99.90;;;;;;7643506;19;20026;-74
2023/03/09 08:55:18;;;;;;;5.28;1.05;;;8.90;99.90;;;;;;7631900;19;21398;-74
2023/03/09 08:57:51;;;;;;;3.67;0.75;;;8.90;99.90;;;;;;7642357;19;20015;-73
2023/03/09 09:00:24;;;;;;;2.67;0.80;;;9.00;99.90;;;;;;7620119;19;20022;-74
2023/03/09 09:02:57;;;;;;;2.60;1.03;;;9.10;99.90;;;;;;7639222;19;20601;-72
2023/03/09 09:05:30;;;;;;;1.40;1.00;;;9.10;99.90;;;;;;7632293;19;20026;-74
2023/03/09 09:08:03;;;;;;;2.30;1.00;;;9.30;99.90;;;;;;7640498;19;20045;-74
2023/03/09 09:10:42;;;;;;;3.95;0.70;;;9.50;99.90;;;;;;7632775;19;20652;-74
2023/03/09 09:13:14;;;;;;;0.52;0.47;;;9.60;99.90;;;;;;7632702;19;20043;-75
2023/03/09 09:15:55;;;;;;;3.40;0.63;;;9.70;99.90;;;;;;7634849;19;20070;-73
2023/03/09 09:18:27;;;;;;;4.45;0.60;;;10.00;99.90;;;;;;7633753;19;20015;-74
2023/03/09 09:21:13;;;;;;;3.53;0.80;;;10.30;99.90;;;;;;7619562;19;20010;-74
2023/03/09 09:23:46;;;;;;;1.85;0.73;;;10.30;99.90;;;;;;7634295;19;20018;-76
2023/03/09 09:26:18;;;;;;;1.60;1.00;;;10.40;99.90;;;;;;7637777;19;20616;-74
2023/03/09 09:28:54;;;;;;;2.10;0.70;;;10.50;99.90;;;;;;7635255;19;20665;-73
2023/03/09 09:31:29;;;;;;;3.90;0.57;;;10.60;99.90;;;;;;7629891;19;20019;-73
2023/03/09 09:34:05;;;;;;;2.40;0.75;;;10.70;99.90;;;;;;7634940;19;20038;-73
2023/03/09 09:36:39;;;;;;;1.42;0.82;;;10.70;99.90;;;;;;7629506;19;20028;-73
2023/03/09 09:39:12;;;;;;;;;;;10.80;99.90;;;;;;7628797;19;20029;-74
2023/03/09 09:41:55;;;;;;;1.85;0.70;;;10.80;99.90;;;;;;7633714;19;20501;-75
2023/03/09 09:44:39;;;;;;;6.38;1.25;;;10.70;99.90;;;;;;7629999;19;20010;-74
2023/03/09 09:47:17;;;;;;;2.83;1.00;;;10.70;99.90;;;;;;7636817;19;20029;-74
2023/03/09 09:49:53;;;;;;;2.63;0.90;;;10.80;99.90;;;;;;7634006;19;20085;-74
2023/03/09 09:52:51;;;;;;;2.50;0.98;;;10.80;99.90;;;;;;7617982;19;20804;-74
2023/03/09 09:55:25;;;;;;;2.88;0.85;;;10.90;99.90;;;;;;7632063;19;20703;-74
2023/03/09 09:58:01;;;;;;;3.72;1.50;;;11.00;99.90;;;;;;7634958;19;20021;-74
2023/03/09 10:00:40;;;;;;;5.38;1.08;;;11.20;99.90;;;;;;7631805;19;21165;-74
2023/03/09 10:03:27;;;;;;;5.78;1.45;;;11.30;99.90;;;;;;7624177;19;20014;-74
2023/03/09 10:06:15;;;;;;;3.13;1.05;;;11.40;99.90;;;;;;7605661;19;20030;-77
2023/03/09 10:08:55;;;;;;;8.80;1.20;;;11.50;99.90;;;;;;7122690;19;10001325;-75
2023/03/09 10:11:39;;;;;;;3.55;1.55;;;11.60;98.90;;;;;;7631938;19;20015;-73
2023/03/09 10:14:27;;;;;;;1.88;0.63;;;11.70;97.20;;;;;;7622426;19;20790;-74
2023/03/09 10:17:13;;;;;;;1.58;1.00;;;11.80;99.80;;;;;;7630245;19;20688;-74
2023/03/09 10:19:48;;;;;;;2.65;1.08;;;11.70;94.20;;;;;;7628265;19;20014;-77
2023/03/09 10:22:24;;;;;;;2.28;0.80;;;11.70;97.10;;;;;;7626926;19;20504;-77
2023/03/09 10:24:57;;;;;;;3.05;0.98;;;11.80;95.20;;;;;;7631988;19;20015;-74
2023/03/09 10:27:41;;;;;;;3.60;0.95;;;11.90;97.10;;;;;;7631174;19;20516;-74
2023/03/09 10:30:13;;;;;;;;;;;11.90;97.80;;;;;;7629760;19;20779;-75
2023/03/09 10:32:53;;;;;;;1.63;0.68;;;11.90;94.40;;;;;;7624947;19;20488;-75
2023/03/09 10:35:40;;;;;;;3.28;0.85;;;11.90;93.40;;;;;;7631143;19;20014;-72
2023/03/09 10:38:14;;;;;;;3.05;0.93;;;12.00;92.50;;;;;;7629275;19;20022;-75
2023/03/09 10:40:53;;;;;;;2.08;0.63;;;12.00;93.40;;;;;;7625309;19;20018;-75
2023/03/09 10:43:30;;;;;;;3.15;0.80;;;11.80;92.10;;;;;;7630756;19;20014;-75
2023/03/09 10:46:14;;;;;;;2.90;0.68;;;11.80;93.10;;;;;;7623053;19;20007;-74
2023/03/09 10:48:48;;;;;;;3.42;0.70;;;11.80;93.50;;;;;;7617333;19;20018;-74
2023/03/09 10:51:21;;;;;;;2.42;1.00;;;11.90;92.70;;;;;;7627852;19;20549;-74
2023/03/09 10:53:55;;;;;;;2.25;1.00;;;11.90;89.40;;;;;;7632574;19;20034;-74
2023/03/09 10:56:30;;;;;;;4.47;1.00;;;11.80;90.20;;;;;;7630229;19;20025;-74
2023/03/09 10:59:09;;;;;;;5.40;0.80;;;11.90;90.60;;;;;;7608315;19;20356;-77
2023/03/09 11:01:44;;;;;;;1.60;0.80;;;12.10;87.50;;;;;;7631971;19;20028;-75
2023/03/09 11:04:23;;;;;;;3.53;0.88;;;12.10;85.10;;;;;;7628074;19;20025;-74
2023/03/09 11:07:04;;;;;;;2.28;0.98;;;12.20;87.40;;;;;;7623234;19;20533;-74
2023/03/09 11:09:43;;;;;;;2.88;0.75;;;12.40;83.60;;;;;;7629755;19;20576;-75
2023/03/09 11:12:39;;;;;;;10.38;1.90;;;12.60;80.80;;;;;;7629619;19;20066;-74
2023/03/09 11:15:15;;;;;;;6.43;0.98;;;12.50;78.00;;;;;;7608603;19;20035;-74
2023/03/09 11:17:48;;;;;;;2.10;0.82;;;12.50;77.60;;;;;;7606679;19;20014;-75
2023/03/09 11:20:23;;;;;;;4.55;0.90;;;12.60;79.60;;;;;;7598324;19;20904;-75
2023/03/09 11:23:25;;;;;;;2.78;1.13;;;12.50;78.60;;;;;;7624390;19;20014;-75
2023/03/09 11:26:01;;;;;;;3.47;1.02;;;12.50;76.60;;;;;;7620678;19;20039;-75
2023/03/09 11:29:01;;;;;;;2.85;1.02;;;12.50;77.40;;;;;;7599932;19;20386;-74
2023/03/09 11:31:37;;;;;;;3.83;1.10;;;12.80;76.50;;;;;;7616623;19;20570;-76
2023/03/09 11:34:30;;;;;;;11.20;1.55;;;12.80;74.80;;;;;;7609719;19;20270;-77
2023/03/09 11:37:17;;;;;;;4.93;1.30;;;12.80;74.30;;;;;;7627321;19;20019;-75
2023/03/09 11:39:58;;;;;;;6.00;1.10;;;12.80;76.00;;;;;;7626839;19;20098;-75
2023/03/09 11:42:55;;;;;;;4.18;1.20;;;13.00;77.50;;;;;;7621105;19;20846;-75
2023/03/09 11:45:32;;;;;;;4.78;1.35;;;13.50;75.90;;;;;;7626625;19;20668;-75
2023/03/09 11:48:28;;;;;;;3.42;1.05;;;14.50;75.20;;;;;;7628835;19;20035;-75
2023/03/09 11:51:11;;;;;;;3.88;0.90;;;16.00;69.20;;;;;;7625808;19;20585;-75
2023/03/09 11:53:46;;;;;;;5.70;1.20;;;16.60;62.40;;;;;;7622257;19;20014;-75
2023/03/09 11:56:22;;;;;;;7.75;1.05;;;16.70;59.00;;;;;;7627044;19;20106;-75
2023/03/09 11:59:07;;;;;;;12.32;1.20;;;16.50;59.30;;;;;;7618355;19;20055;-75
2023/03/09 12:01:49;;;;;;;4.10;0.80;;;16.90;61.30;;;;;;7620460;19;20020;-75
2023/03/09 12:04:22;;;;;;;3.60;1.40;;;16.60;56.90;;;;;;7617956;19;20018;-75
2023/03/09 12:07:05;;;;;;;3.00;0.73;;;17.40;58.00;;;;;;7620740;19;20015;-75
2023/03/09 12:10:09;;;;;;;5.90;1.13;;;17.00;55.10;;;;;;7627206;19;20311;-75
2023/03/09 12:12:55;;;;;;;10.02;1.23;;;17.50;57.00;;;;;;7624510;19;20019;-76
2023/03/09 12:15:36;;;;;;;4.72;1.23;;;18.00;55.00;;;;;;7615554;19;20018;-75
2023/03/09 12:18:24;;;;;;;11.32;1.13;;;18.50;55.00;;;;;;7620752;19;20461;-79
2023/03/09 12:21:01;;;;;;;6.25;0.95;;;18.60;54.30;;;;;;7618087;19;21051;-76
2023/03/09 12:23:39;;;;;;;4.32;1.10;;;18.60;52.00;;;;;;7617146;19;20038;-76
2023/03/09 12:26:11;;;;;;;3.67;0.68;;;18.80;51.60;;;;;;7608797;19;20031;-75
2023/03/09 12:29:18;;;;;;;3.97;1.08;;;18.80;51.30;;;;;;7590645;19;20029;-76
2023/03/09 12:32:15;;;;;;;2.65;0.77;;;18.50;51.20;;;;;;7603350;19;20019;-76
2023/03/09 12:34:50;;;;;;;3.85;1.10;;;18.40;51.70;;;;;;7591846;19;20642;-75
2023/03/09 12:37:35;;;;;;;3.45;1.20;;;18.80;51.50;;;;;;7605987;19;20025;-76
2023/03/09 12:40:24;;;;;;;2.92;1.02;;;18.40;52.00;;;;;;7612888;19;20018;-76
2023/03/09 12:43:21;;;;;;;4.97;1.20;;;17.30;54.20;;;;;;7619229;19;20022;-75
2023/03/09 12:45:54;;;;;;;2.80;1.00;;;16.30;55.00;;;;;;7614617;19;20011;-75
2023/03/09 12:48:29;;;;;;;7.38;1.02;;;;;;;;;;7610481;19;20014;-75
2023/03/09 12:51:07;;;;;;;5.55;1.30;;;;;;;;;;7613474;19;20946;-75
2023/03/09 12:53:57;;;;;;;4.05;1.00;;;;;;;;;;7615586;19;20022;-75
2023/03/09 12:56:33;;;;;;;3.38;1.10;;;;;;;;;;7611757;19;20737;-74
2023/03/09 12:59:09;;;;;;;3.95;0.77;;;;;;;;;;7625040;19;20059;-74
2023/03/09 13:01:42;;;;;;;3.85;0.90;;;;;;;;;;7617652;19;20047;-75
2023/03/09 13:04:18;;;;;;;4.05;1.20;;;;;;;;;;7623109;19;20031;-75
2023/03/09 13:06:51;;;;;;;3.67;1.10;;;;;;;;;;7617914;19;20011;-74
2023/03/09 13:09:27;;;;;;;2.90;1.20;;;;;;;;;;7618486;19;20018;-75
2023/03/09 13:12:02;;;;;;;3.60;1.00;;;;;;;;;;7616822;19;20894;-75
2023/03/09 13:14:41;;;;;;;3.38;0.80;;;;;;;;;;7616993;19;20018;-75
2023/03/09 13:17:30;;;;;;;2.75;0.95;;;;;;;;;;7615961;19;20697;-77
2023/03/09 13:20:15;;;;;;;2.08;1.02;;;;;;;;;;7586813;19;20021;-75
2023/03/09 13:22:48;;;;;;;7.47;1.60;;;;;;;;;;7620738;19;20006;-76
2023/03/09 13:25:35;;;;;;;2.17;0.80;;;;;;;;;;7606906;19;20046;-76
2023/03/09 13:28:26;;;;;;;3.58;1.23;;;;;;;;;;7615326;19;20097;-75
2023/03/09 13:31:03;;;;;;;4.45;1.42;;;;;;;;;;7599846;19;20023;-75
2023/03/09 13:33:36;;;;;;;5.00;0.90;;;16.50;55.90;;;;;;7587015;19;20091;-75
2023/03/09 13:36:23;;;;;;;7.97;1.45;;;21.40;45.00;;;;;;7610254;19;20060;-75
2023/03/09 13:39:08;;;;;;;5.45;1.20;;;;;;;;;;7620632;19;21182;-75
2023/03/09 13:41:42;;;;;;;3.45;1.02;;;;;;;;;;7604565;19;20024;-76
2023/03/09 13:44:17;;;;;;;5.35;1.08;;;;;;;;;;7572727;19;20014;-75
2023/03/09 13:46:55;;;;;;;2.95;1.05;;;18.80;48.90;;;;;;7611689;19;20386;-75